sensor_id;sensor_type;location;lat;lon;timestamp;temperature;humidity
27707;DHT22;36332;51.384;0.040;2023-04-24T00:12:19;9.40;99.90
27707;DHT22;36332;51.384;0.040;2023-04-24T00:27:08;9.40;99.90
27707;DHT22;36332;51.384;0.040;2023-04-24T00:46:52;9.40;99.90
27707;DHT22;36332;51.384;0.040;2023-04-24T00:49:22;9.40;99.90
27707;DHT22;36332;51.384;0.040;2023-04-24T00:54:18;9.80;99.90
27707;DHT22;36332;51.384;0.040;2023-04-24T01:04:14;9.40;99.90
27707;DHT22;36332;51.384;0.040;2023-04-24T01:06:43;9.30;99.90
27707;DHT22;36332;51.384;0.040;2023-04-24T01:09:12;9.40;99.90
27707;DHT22;36332;51.384;0.040;2023-04-24T01:11:41;9.30;99.90
27707;DHT22;36332;51.384;0.040;2023-04-24T01:19:10;9.30;99.90
27707;DHT22;36332;51.384;0.040;2023-04-24T01:21:38;9.30;99.90
27707;DHT22;36332;51.384;0.040;2023-04-24T01:31:30;9.20;99.90
27707;DHT22;36332;51.384;0.040;2023-04-24T01:36:27;9.30;99.90
27707;DHT22;36332;51.384;0.040;2023-04-24T01:46:22;9.30;99.90
27707;DHT22;36332;51.384;0.040;2023-04-24T01:48:51;9.30;99.90
27707;DHT22;36332;51.384;0.040;2023-04-24T01:53:47;9.10;99.90
27707;DHT22;36332;51.384;0.040;2023-04-24T01:58:43;9.20;99.90
27707;DHT22;36332;51.384;0.040;2023-04-24T02:01:18;9.20;99.90
27707;DHT22;36332;51.384;0.040;2023-04-24T02:43:13;8.80;99.90
27707;DHT22;36332;51.384;0.040;2023-04-24T03:22:42;8.80;99.90
27707;DHT22;36332;51.384;0.040;2023-04-24T03:40:39;8.90;99.90
27707;DHT22;36332;51.384;0.040;2023-04-24T03:43:20;8.80;99.90
27707;DHT22;36332;51.384;0.040;2023-04-24T03:55:44;8.80;99.90
27707;DHT22;36332;51.384;0.040;2023-04-24T04:11:02;9.10;99.90
27707;DHT22;36332;51.384;0.040;2023-04-24T04:23:24;8.80;99.90
27707;DHT22;36332;51.384;0.040;2023-04-24T04:33:50;8.70;99.90
27707;DHT22;36332;51.384;0.040;2023-04-24T04:49:13;8.60;99.90
27707;DHT22;36332;51.384;0.040;2023-04-24T05:26:59;8.60;99.90
27707;DHT22;36332;51.384;0.040;2023-04-24T05:34:30;8.60;99.90
27707;DHT22;36332;51.384;0.040;2023-04-24T05:54:19;8.90;99.90
27707;DHT22;36332;51.384;0.040;2023-04-24T06:17:12;9.10;99.90
27707;DHT22;36332;51.384;0.040;2023-04-24T06:24:39;9.30;99.90
27707;DHT22;36332;51.384;0.040;2023-04-24T06:27:06;9.50;99.90
27707;DHT22;36332;51.384;0.040;2023-04-24T06:29:36;9.40;99.90
27707;DHT22;36332;51.384;0.040;2023-04-24T06:32:05;9.40;99.90
27707;DHT22;36332;51.384;0.040;2023-04-24T06:41:58;9.50;99.90
27707;DHT22;36332;51.384;0.040;2023-04-24T07:14:06;9.90;99.90
27707;DHT22;36332;51.384;0.040;2023-04-24T07:26:29;10.20;99.90
27707;DHT22;36332;51.384;0.040;2023-04-24T07:41:16;10.80;99.90
27707;DHT22;36332;51.384;0.040;2023-04-24T07:43:44;10.40;99.90
27707;DHT22;36332;51.384;0.040;2023-04-24T07:48:40;10.70;99.90
27707;DHT22;36332;51.384;0.040;2023-04-24T08:01:02;10.80;99.90
27707;DHT22;36332;51.384;0.040;2023-04-24T08:13:22;11.40;99.90
27707;DHT22;36332;51.384;0.040;2023-04-24T08:28:09;12.40;99.90
27707;DHT22;36332;51.384;0.040;2023-04-24T08:30:37;12.40;99.90
27707;DHT22;36332;51.384;0.040;2023-04-24T08:33:05;12.30;99.90
27707;DHT22;36332;51.384;0.040;2023-04-24T08:50:22;12.90;99.90
27707;DHT22;36332;51.384;0.040;2023-04-24T08:52:50;13.40;99.90
27707;DHT22;36332;51.384;0.040;2023-04-24T08:55:20;13.70;99.90
27707;DHT22;36332;51.384;0.040;2023-04-24T08:57:51;13.70;99.90
27707;DHT22;36332;51.384;0.040;2023-04-24T09:00:22;13.50;99.90
27707;DHT22;36332;51.384;0.040;2023-04-24T09:05:21;13.80;99.90
27707;DHT22;36332;51.384;0.040;2023-04-24T09:07:54;13.50;99.90
27707;DHT22;36332;51.384;0.040;2023-04-24T09:10:24;13.90;99.90
27707;DHT22;36332;51.384;0.040;2023-04-24T09:12:52;13.70;99.90
27707;DHT22;36332;51.384;0.040;2023-04-24T09:17:48;13.70;99.90
27707;DHT22;36332;51.384;0.040;2023-04-24T09:22:45;13.30;99.90
27707;DHT22;36332;51.384;0.040;2023-04-24T09:27:42;13.30;99.90
27707;DHT22;36332;51.384;0.040;2023-04-24T09:30:11;13.40;99.90
27707;DHT22;36332;51.384;0.040;2023-04-24T09:32:41;13.10;99.90
27707;DHT22;36332;51.384;0.040;2023-04-24T09:35:14;12.80;99.90
27707;DHT22;36332;51.384;0.040;2023-04-24T09:37:45;13.00;99.90
27707;DHT22;36332;51.384;0.040;2023-04-24T09:40:18;12.80;99.90
27707;DHT22;36332;51.384;0.040;2023-04-24T09:42:53;13.00;99.90
27707;DHT22;36332;51.384;0.040;2023-04-24T09:47:53;12.90;99.90
27707;DHT22;36332;51.384;0.040;2023-04-24T09:53:01;13.50;99.90
27707;DHT22;36332;51.384;0.040;2023-04-24T09:58:00;14.20;99.90
27707;DHT22;36332;51.384;0.040;2023-04-24T10:00:30;14.10;99.90
27707;DHT22;36332;51.384;0.040;2023-04-24T10:03:02;14.30;99.90
27707;DHT22;36332;51.384;0.040;2023-04-24T10:05:37;14.30;99.90
27707;DHT22;36332;51.384;0.040;2023-04-24T10:08:07;14.50;99.90
27707;DHT22;36332;51.384;0.040;2023-04-24T10:10:41;14.60;99.90
27707;DHT22;36332;51.384;0.040;2023-04-24T10:13:13;14.70;99.90
27707;DHT22;36332;51.384;0.040;2023-04-24T10:18:11;14.40;99.90
27707;DHT22;36332;51.384;0.040;2023-04-24T10:20:40;14.30;99.90
27707;DHT22;36332;51.384;0.040;2023-04-24T10:23:07;14.00;99.90
27707;DHT22;36332;51.384;0.040;2023-04-24T10:25:36;13.90;99.90
27707;DHT22;36332;51.384;0.040;2023-04-24T10:30:37;13.80;99.90
27707;DHT22;36332;51.384;0.040;2023-04-24T10:33:07;13.80;99.90
27707;DHT22;36332;51.384;0.040;2023-04-24T10:35:41;13.70;99.90
27707;DHT22;36332;51.384;0.040;2023-04-24T10:38:12;13.60;99.90
27707;DHT22;36332;51.384;0.040;2023-04-24T10:45:39;13.80;99.90
27707;DHT22;36332;51.384;0.040;2023-04-24T10:48:08;13.70;99.90
27707;DHT22;36332;51.384;0.040;2023-04-24T10:50:51;13.90;99.90
27707;DHT22;36332;51.384;0.040;2023-04-24T10:53:21;13.90;99.90
27707;DHT22;36332;51.384;0.040;2023-04-24T10:56:08;13.90;99.90
27707;DHT22;36332;51.384;0.040;2023-04-24T10:58:38;14.00;99.90
27707;DHT22;36332;51.384;0.040;2023-04-24T11:01:07;14.10;99.90
27707;DHT22;36332;51.384;0.040;2023-04-24T11:06:06;14.20;99.90
27707;DHT22;36332;51.384;0.040;2023-04-24T11:08:46;14.40;99.90
27707;DHT22;36332;51.384;0.040;2023-04-24T11:11:18;14.30;99.90
27707;DHT22;36332;51.384;0.040;2023-04-24T11:19:17;14.30;99.90
27707;DHT22;36332;51.384;0.040;2023-04-24T11:22:13;14.20;99.90
27707;DHT22;36332;51.384;0.040;2023-04-24T11:27:22;13.90;99.90
27707;DHT22;36332;51.384;0.040;2023-04-24T11:30:00;14.00;99.90
27707;DHT22;36332;51.384;0.040;2023-04-24T11:32:36;14.10;99.90
27707;DHT22;36332;51.384;0.040;2023-04-24T11:37:41;13.80;99.90
27707;DHT22;36332;51.384;0.040;2023-04-24T11:40:10;13.80;99.90
27707;DHT22;36332;51.384;0.040;2023-04-24T11:42:40;14.10;99.90
27707;DHT22;36332;51.384;0.040;2023-04-24T11:45:18;14.40;99.90
27707;DHT22;36332;51.384;0.040;2023-04-24T11:50:17;14.90;99.90
27707;DHT22;36332;51.384;0.040;2023-04-24T11:52:47;15.20;99.90
27707;DHT22;36332;51.384;0.040;2023-04-24T11:57:48;15.60;99.90
27707;DHT22;36332;51.384;0.040;2023-04-24T12:00:18;15.50;99.90
27707;DHT22;36332;51.384;0.040;2023-04-24T12:02:48;15.70;99.90
27707;DHT22;36332;51.384;0.040;2023-04-24T12:05:28;15.50;99.90
27707;DHT22;36332;51.384;0.040;2023-04-24T12:07:59;15.70;99.90
27707;DHT22;36332;51.384;0.040;2023-04-24T12:10:28;15.60;99.90
27707;DHT22;36332;51.384;0.040;2023-04-24T12:12:57;18.70;99.90
27707;DHT22;36332;51.384;0.040;2023-04-24T12:15:25;15.90;99.90
27707;DHT22;36332;51.384;0.040;2023-04-24T12:17:54;16.10;99.90
27707;DHT22;36332;51.384;0.040;2023-04-24T12:20:27;16.60;99.90
27707;DHT22;36332;51.384;0.040;2023-04-24T12:22:57;17.10;99.90
27707;DHT22;36332;51.384;0.040;2023-04-24T12:25:27;17.40;99.90
27707;DHT22;36332;51.384;0.040;2023-04-24T12:30:27;17.80;99.90
27707;DHT22;36332;51.384;0.040;2023-04-24T12:32:59;18.00;99.90
27707;DHT22;36332;51.384;0.040;2023-04-24T12:35:29;17.80;99.90
27707;DHT22;36332;51.384;0.040;2023-04-24T12:38:06;18.70;99.90
27707;DHT22;36332;51.384;0.040;2023-04-24T12:40:35;19.40;99.90
27707;DHT22;36332;51.384;0.040;2023-04-24T12:43:16;20.00;99.90
27707;DHT22;36332;51.384;0.040;2023-04-24T12:50:44;20.10;99.90
27707;DHT22;36332;51.384;0.040;2023-04-24T12:53:14;19.70;99.90
27707;DHT22;36332;51.384;0.040;2023-04-24T12:55:43;19.40;99.90
27707;DHT22;36332;51.384;0.040;2023-04-24T13:00:40;18.40;99.90
27707;DHT22;36332;51.384;0.040;2023-04-24T13:03:11;18.30;99.90
27707;DHT22;36332;51.384;0.040;2023-04-24T13:08:08;18.60;99.90
27707;DHT22;36332;51.384;0.040;2023-04-24T13:15:31;18.30;99.90
27707;DHT22;36332;51.384;0.040;2023-04-24T13:35:15;18.40;99.90
27707;DHT22;36332;51.384;0.040;2023-04-24T13:40:11;19.60;99.90
27707;DHT22;36332;51.384;0.040;2023-04-24T13:42:39;20.00;99.90
27707;DHT22;36332;51.384;0.040;2023-04-24T13:45:08;20.20;99.90
27707;DHT22;36332;51.384;0.040;2023-04-24T13:50:08;19.80;99.90
27707;DHT22;36332;51.384;0.040;2023-04-24T13:52:36;19.50;99.90
27707;DHT22;36332;51.384;0.040;2023-04-24T13:55:05;19.30;99.90
27707;DHT22;36332;51.384;0.040;2023-04-24T14:07:30;18.70;99.90
27707;DHT22;36332;51.384;0.040;2023-04-24T14:09:59;18.70;99.90
27707;DHT22;36332;51.384;0.040;2023-04-24T14:12:27;18.90;99.90
27707;DHT22;36332;51.384;0.040;2023-04-24T14:14:55;18.90;99.90
27707;DHT22;36332;51.384;0.040;2023-04-24T14:17:23;19.10;99.90
27707;DHT22;36332;51.384;0.040;2023-04-24T14:19:51;19.20;99.90
27707;DHT22;36332;51.384;0.040;2023-04-24T14:24:47;19.20;99.90
27707;DHT22;36332;51.384;0.040;2023-04-24T14:27:15;19.20;99.90
27707;DHT22;36332;51.384;0.040;2023-04-24T14:29:42;19.10;99.90
27707;DHT22;36332;51.384;0.040;2023-04-24T14:32:10;18.80;99.90
27707;DHT22;36332;51.384;0.040;2023-04-24T14:34:38;18.80;99.90
27707;DHT22;36332;51.384;0.040;2023-04-24T14:37:06;18.70;99.90
27707;DHT22;36332;51.384;0.040;2023-04-24T14:39:33;18.60;99.90
27707;DHT22;36332;51.384;0.040;2023-04-24T14:42:01;18.40;99.90
27707;DHT22;36332;51.384;0.040;2023-04-24T14:44:28;18.10;99.90
27707;DHT22;36332;51.384;0.040;2023-04-24T14:46:56;17.50;99.90
27707;DHT22;36332;51.384;0.040;2023-04-24T14:49:25;17.40;99.90
27707;DHT22;36332;51.384;0.040;2023-04-24T14:51:53;17.00;99.90
27707;DHT22;36332;51.384;0.040;2023-04-24T14:54:21;16.70;99.90
27707;DHT22;36332;51.384;0.040;2023-04-24T14:56:50;16.50;99.90
27707;DHT22;36332;51.384;0.040;2023-04-24T14:59:19;16.10;99.90
27707;DHT22;36332;51.384;0.040;2023-04-24T15:01:47;16.10;99.90
27707;DHT22;36332;51.384;0.040;2023-04-24T15:04:15;16.00;99.90
27707;DHT22;36332;51.384;0.040;2023-04-24T15:06:43;15.80;99.90
27707;DHT22;36332;51.384;0.040;2023-04-24T15:09:10;15.80;99.90
27707;DHT22;36332;51.384;0.040;2023-04-24T15:11:38;15.60;99.90
27707;DHT22;36332;51.384;0.040;2023-04-24T15:14:06;15.60;99.90
27707;DHT22;36332;51.384;0.040;2023-04-24T15:16:35;15.40;99.90
27707;DHT22;36332;51.384;0.040;2023-04-24T15:19:02;15.30;99.90
27707;DHT22;36332;51.384;0.040;2023-04-24T15:21:30;15.20;99.90
27707;DHT22;36332;51.384;0.040;2023-04-24T15:24:00;15.10;99.90
27707;DHT22;36332;51.384;0.040;2023-04-24T15:26:27;14.90;99.90
27707;DHT22;36332;51.384;0.040;2023-04-24T15:28:55;14.60;99.90
27707;DHT22;36332;51.384;0.040;2023-04-24T15:31:22;14.10;99.90
27707;DHT22;36332;51.384;0.040;2023-04-24T15:33:50;13.60;99.90
27707;DHT22;36332;51.384;0.040;2023-04-24T15:38:48;12.10;99.90
27707;DHT22;36332;51.384;0.040;2023-04-24T15:41:17;11.40;99.90
27707;DHT22;36332;51.384;0.040;2023-04-24T15:43:44;10.90;99.90
27707;DHT22;36332;51.384;0.040;2023-04-24T15:46:12;10.50;99.90
27707;DHT22;36332;51.384;0.040;2023-04-24T15:48:41;10.10;99.90
27707;DHT22;36332;51.384;0.040;2023-04-24T15:51:09;9.70;99.90
27707;DHT22;36332;51.384;0.040;2023-04-24T15:53:37;9.60;99.90
27707;DHT22;36332;51.384;0.040;2023-04-24T15:56:05;9.50;99.90
27707;DHT22;36332;51.384;0.040;2023-04-24T15:58:32;9.40;99.90
27707;DHT22;36332;51.384;0.040;2023-04-24T16:01:01;9.20;99.90
27707;DHT22;36332;51.384;0.040;2023-04-24T16:03:28;9.30;99.90
27707;DHT22;36332;51.384;0.040;2023-04-24T16:05:56;9.30;99.90
27707;DHT22;36332;51.384;0.040;2023-04-24T16:08:24;9.20;99.90
27707;DHT22;36332;51.384;0.040;2023-04-24T16:10:51;9.20;99.90
27707;DHT22;36332;51.384;0.040;2023-04-24T16:13:19;9.20;99.90
27707;DHT22;36332;51.384;0.040;2023-04-24T16:15:46;9.20;99.90
27707;DHT22;36332;51.384;0.040;2023-04-24T16:18:14;9.10;99.90
27707;DHT22;36332;51.384;0.040;2023-04-24T16:20:43;9.10;99.90
27707;DHT22;36332;51.384;0.040;2023-04-24T16:23:11;9.10;99.90
27707;DHT22;36332;51.384;0.040;2023-04-24T16:25:39;9.10;99.90
27707;DHT22;36332;51.384;0.040;2023-04-24T16:28:07;9.10;99.90
27707;DHT22;36332;51.384;0.040;2023-04-24T16:30:34;9.00;99.90
27707;DHT22;36332;51.384;0.040;2023-04-24T16:33:03;9.00;99.90
27707;DHT22;36332;51.384;0.040;2023-04-24T16:35:35;9.10;99.90
27707;DHT22;36332;51.384;0.040;2023-04-24T16:38:03;9.10;99.90
27707;DHT22;36332;51.384;0.040;2023-04-24T16:40:31;10.20;99.90
27707;DHT22;36332;51.384;0.040;2023-04-24T16:42:58;9.10;99.90
27707;DHT22;36332;51.384;0.040;2023-04-24T16:45:26;9.00;99.90
27707;DHT22;36332;51.384;0.040;2023-04-24T16:47:57;9.00;99.90
27707;DHT22;36332;51.384;0.040;2023-04-24T16:50:25;9.10;99.90
27707;DHT22;36332;51.384;0.040;2023-04-24T16:52:52;9.10;99.90
27707;DHT22;36332;51.384;0.040;2023-04-24T16:55:20;9.00;99.90
27707;DHT22;36332;51.384;0.040;2023-04-24T16:57:48;9.00;99.90
27707;DHT22;36332;51.384;0.040;2023-04-24T17:00:16;9.00;99.90
27707;DHT22;36332;51.384;0.040;2023-04-24T17:02:43;9.00;99.90
27707;DHT22;36332;51.384;0.040;2023-04-24T17:05:16;9.00;99.90
27707;DHT22;36332;51.384;0.040;2023-04-24T17:07:46;9.10;99.90
27707;DHT22;36332;51.384;0.040;2023-04-24T17:10:14;9.10;99.90
27707;DHT22;36332;51.384;0.040;2023-04-24T17:12:43;9.20;99.90
27707;DHT22;36332;51.384;0.040;2023-04-24T17:15:11;9.20;99.90
27707;DHT22;36332;51.384;0.040;2023-04-24T17:17:39;9.20;99.90
27707;DHT22;36332;51.384;0.040;2023-04-24T17:20:12;9.40;99.90
27707;DHT22;36332;51.384;0.040;2023-04-24T17:22:49;9.40;99.90
27707;DHT22;36332;51.384;0.040;2023-04-24T17:25:17;9.60;99.90
27707;DHT22;36332;51.384;0.040;2023-04-24T17:30:13;9.40;99.90
27707;DHT22;36332;51.384;0.040;2023-04-24T17:32:41;9.40;99.90
27707;DHT22;36332;51.384;0.040;2023-04-24T17:35:10;9.40;99.90
27707;DHT22;36332;51.384;0.040;2023-04-24T17:37:38;9.30;99.90
27707;DHT22;36332;51.384;0.040;2023-04-24T17:40:06;9.40;99.90
27707;DHT22;36332;51.384;0.040;2023-04-24T17:42:34;9.30;99.90
27707;DHT22;36332;51.384;0.040;2023-04-24T17:45:05;9.30;99.90
27707;DHT22;36332;51.384;0.040;2023-04-24T17:47:33;9.30;99.90
27707;DHT22;36332;51.384;0.040;2023-04-24T17:50:01;9.30;99.90
27707;DHT22;36332;51.384;0.040;2023-04-24T17:52:29;9.30;99.90
27707;DHT22;36332;51.384;0.040;2023-04-24T17:54:57;9.30;99.90
27707;DHT22;36332;51.384;0.040;2023-04-24T17:57:25;9.20;99.90
27707;DHT22;36332;51.384;0.040;2023-04-24T17:59:54;9.20;99.90
27707;DHT22;36332;51.384;0.040;2023-04-24T18:02:21;9.20;99.90
27707;DHT22;36332;51.384;0.040;2023-04-24T18:04:49;9.20;99.90
27707;DHT22;36332;51.384;0.040;2023-04-24T18:07:21;9.10;99.90
27707;DHT22;36332;51.384;0.040;2023-04-24T18:09:48;9.00;99.90
27707;DHT22;36332;51.384;0.040;2023-04-24T18:12:16;12.00;99.90
27707;DHT22;36332;51.384;0.040;2023-04-24T18:14:44;9.00;99.90
27707;DHT22;36332;51.384;0.040;2023-04-24T18:17:12;9.00;99.90
27707;DHT22;36332;51.384;0.040;2023-04-24T18:19:39;9.10;99.90
27707;DHT22;36332;51.384;0.040;2023-04-24T18:24:34;9.00;99.90
27707;DHT22;36332;51.384;0.040;2023-04-24T18:27:02;9.00;99.90
27707;DHT22;36332;51.384;0.040;2023-04-24T18:29:30;9.00;99.90
27707;DHT22;36332;51.384;0.040;2023-04-24T18:31:57;9.00;99.90
27707;DHT22;36332;51.384;0.040;2023-04-24T18:36:54;9.00;99.90
27707;DHT22;36332;51.384;0.040;2023-04-24T18:39:22;9.00;99.90
27707;DHT22;36332;51.384;0.040;2023-04-24T18:41:49;9.10;99.90
27707;DHT22;36332;51.384;0.040;2023-04-24T18:44:16;9.20;99.90
27707;DHT22;36332;51.384;0.040;2023-04-24T18:46:44;9.00;99.90
27707;DHT22;36332;51.384;0.040;2023-04-24T18:49:12;9.00;99.90
27707;DHT22;36332;51.384;0.040;2023-04-24T18:51:40;8.90;99.90
27707;DHT22;36332;51.384;0.040;2023-04-24T18:54:20;8.90;99.90
27707;DHT22;36332;51.384;0.040;2023-04-24T18:56:48;8.70;99.90
27707;DHT22;36332;51.384;0.040;2023-04-24T18:59:17;8.70;99.90
27707;DHT22;36332;51.384;0.040;2023-04-24T19:01:44;8.60;99.90
27707;DHT22;36332;51.384;0.040;2023-04-24T19:06:42;8.50;99.90
27707;DHT22;36332;51.384;0.040;2023-04-24T19:09:09;8.40;99.90
27707;DHT22;36332;51.384;0.040;2023-04-24T19:11:37;8.40;99.90
27707;DHT22;36332;51.384;0.040;2023-04-24T19:14:04;8.30;99.90
27707;DHT22;36332;51.384;0.040;2023-04-24T19:16:33;8.40;99.90
27707;DHT22;36332;51.384;0.040;2023-04-24T19:19:01;8.30;99.90
27707;DHT22;36332;51.384;0.040;2023-04-24T19:21:32;8.20;99.90
27707;DHT22;36332;51.384;0.040;2023-04-24T19:24:00;8.20;99.90
27707;DHT22;36332;51.384;0.040;2023-04-24T19:26:28;8.20;99.90
27707;DHT22;36332;51.384;0.040;2023-04-24T19:28:57;8.20;99.90
27707;DHT22;36332;51.384;0.040;2023-04-24T19:33:53;8.20;99.90
27707;DHT22;36332;51.384;0.040;2023-04-24T19:36:21;8.10;99.90
27707;DHT22;36332;51.384;0.040;2023-04-24T19:38:49;8.10;99.90
27707;DHT22;36332;51.384;0.040;2023-04-24T19:41:17;8.10;99.90
27707;DHT22;36332;51.384;0.040;2023-04-24T19:48:45;8.10;99.90
27707;DHT22;36332;51.384;0.040;2023-04-24T19:51:13;8.00;99.90
27707;DHT22;36332;51.384;0.040;2023-04-24T19:53:40;8.00;99.90
27707;DHT22;36332;51.384;0.040;2023-04-24T19:56:09;8.00;99.90
27707;DHT22;36332;51.384;0.040;2023-04-24T19:58:37;8.00;99.90
27707;DHT22;36332;51.384;0.040;2023-04-24T20:01:04;8.00;99.90
27707;DHT22;36332;51.384;0.040;2023-04-24T20:03:33;8.10;99.90
27707;DHT22;36332;51.384;0.040;2023-04-24T20:06:02;8.00;99.90
27707;DHT22;36332;51.384;0.040;2023-04-24T20:08:30;8.00;99.90
27707;DHT22;36332;51.384;0.040;2023-04-24T20:13:25;7.90;99.90
27707;DHT22;36332;51.384;0.040;2023-04-24T20:15:58;8.00;99.90
27707;DHT22;36332;51.384;0.040;2023-04-24T20:18:26;7.90;99.90
27707;DHT22;36332;51.384;0.040;2023-04-24T20:20:54;7.90;99.90
27707;DHT22;36332;51.384;0.040;2023-04-24T20:23:25;7.90;99.90
27707;DHT22;36332;51.384;0.040;2023-04-24T20:25:53;7.90;99.90
27707;DHT22;36332;51.384;0.040;2023-04-24T20:28:26;7.90;99.90
27707;DHT22;36332;51.384;0.040;2023-04-24T20:30:56;7.80;99.90
27707;DHT22;36332;51.384;0.040;2023-04-24T20:33:24;7.80;99.90
27707;DHT22;36332;51.384;0.040;2023-04-24T20:35:52;7.80;99.90
27707;DHT22;36332;51.384;0.040;2023-04-24T20:38:20;7.80;99.90
27707;DHT22;36332;51.384;0.040;2023-04-24T20:40:48;7.90;99.90
27707;DHT22;36332;51.384;0.040;2023-04-24T20:43:22;7.90;99.90
27707;DHT22;36332;51.384;0.040;2023-04-24T20:45:55;7.80;99.90
27707;DHT22;36332;51.384;0.040;2023-04-24T20:48:24;7.90;99.90
27707;DHT22;36332;51.384;0.040;2023-04-24T20:50:53;7.90;99.90
27707;DHT22;36332;51.384;0.040;2023-04-24T20:53:21;7.90;99.90
27707;DHT22;36332;51.384;0.040;2023-04-24T20:55:48;7.90;99.90
27707;DHT22;36332;51.384;0.040;2023-04-24T20:58:16;8.00;99.90
27707;DHT22;36332;51.384;0.040;2023-04-24T21:00:48;7.90;99.90
27707;DHT22;36332;51.384;0.040;2023-04-24T21:03:16;7.90;99.90
27707;DHT22;36332;51.384;0.040;2023-04-24T21:05:44;7.90;99.90
27707;DHT22;36332;51.384;0.040;2023-04-24T21:08:12;7.90;99.90
27707;DHT22;36332;51.384;0.040;2023-04-24T21:10:39;7.90;99.90
27707;DHT22;36332;51.384;0.040;2023-04-24T21:13:07;7.80;99.90
27707;DHT22;36332;51.384;0.040;2023-04-24T21:15:35;7.80;99.90
27707;DHT22;36332;51.384;0.040;2023-04-24T21:18:03;7.80;99.90
27707;DHT22;36332;51.384;0.040;2023-04-24T21:20:31;7.80;99.90
27707;DHT22;36332;51.384;0.040;2023-04-24T21:22:58;7.80;99.90
27707;DHT22;36332;51.384;0.040;2023-04-24T21:25:26;7.80;99.90
27707;DHT22;36332;51.384;0.040;2023-04-24T21:27:54;7.70;99.90
27707;DHT22;36332;51.384;0.040;2023-04-24T21:30:21;7.70;99.90
27707;DHT22;36332;51.384;0.040;2023-04-24T21:32:49;7.60;99.90
27707;DHT22;36332;51.384;0.040;2023-04-24T21:35:18;7.60;99.90
27707;DHT22;36332;51.384;0.040;2023-04-24T21:37:46;7.50;99.90
27707;DHT22;36332;51.384;0.040;2023-04-24T21:40:13;7.60;99.90
27707;DHT22;36332;51.384;0.040;2023-04-24T21:42:42;7.50;99.90
27707;DHT22;36332;51.384;0.040;2023-04-24T21:45:10;7.50;99.90
27707;DHT22;36332;51.384;0.040;2023-04-24T21:47:38;7.50;99.90
27707;DHT22;36332;51.384;0.040;2023-04-24T21:50:06;7.50;99.90
27707;DHT22;36332;51.384;0.040;2023-04-24T21:52:34;7.50;99.90
27707;DHT22;36332;51.384;0.040;2023-04-24T21:55:01;7.60;99.90
27707;DHT22;36332;51.384;0.040;2023-04-24T21:57:29;7.50;99.90
27707;DHT22;36332;51.384;0.040;2023-04-24T21:59:57;7.60;99.90
27707;DHT22;36332;51.384;0.040;2023-04-24T22:02:25;7.60;99.90
27707;DHT22;36332;51.384;0.040;2023-04-24T22:04:53;7.50;99.90
27707;DHT22;36332;51.384;0.040;2023-04-24T22:07:22;7.50;99.90
27707;DHT22;36332;51.384;0.040;2023-04-24T22:09:50;8.30;99.90
27707;DHT22;36332;51.384;0.040;2023-04-24T22:12:18;7.40;99.90
27707;DHT22;36332;51.384;0.040;2023-04-24T22:14:45;7.40;99.90
27707;DHT22;36332;51.384;0.040;2023-04-24T22:17:13;7.40;99.90
27707;DHT22;36332;51.384;0.040;2023-04-24T22:19:43;7.40;99.90
27707;DHT22;36332;51.384;0.040;2023-04-24T22:22:11;7.60;99.90
27707;DHT22;36332;51.384;0.040;2023-04-24T22:24:38;7.40;99.90
27707;DHT22;36332;51.384;0.040;2023-04-24T22:27:06;7.60;99.90
27707;DHT22;36332;51.384;0.040;2023-04-24T22:29:33;7.40;99.90
27707;DHT22;36332;51.384;0.040;2023-04-24T22:32:01;7.40;99.90
27707;DHT22;36332;51.384;0.040;2023-04-24T22:34:29;7.40;99.90
27707;DHT22;36332;51.384;0.040;2023-04-24T22:36:56;7.40;99.90
27707;DHT22;36332;51.384;0.040;2023-04-24T22:39:24;7.80;99.90
27707;DHT22;36332;51.384;0.040;2023-04-24T22:41:52;7.40;99.90
27707;DHT22;36332;51.384;0.040;2023-04-24T22:44:19;7.40;99.90
27707;DHT22;36332;51.384;0.040;2023-04-24T22:46:47;8.80;99.90
27707;DHT22;36332;51.384;0.040;2023-04-24T22:49:15;7.40;99.90
27707;DHT22;36332;51.384;0.040;2023-04-24T22:51:43;7.40;99.90
27707;DHT22;36332;51.384;0.040;2023-04-24T22:54:10;7.40;99.90
27707;DHT22;36332;51.384;0.040;2023-04-24T22:56:38;7.40;99.90
27707;DHT22;36332;51.384;0.040;2023-04-24T22:59:05;7.40;99.90
27707;DHT22;36332;51.384;0.040;2023-04-24T23:01:33;7.30;99.90
27707;DHT22;36332;51.384;0.040;2023-04-24T23:04:00;7.30;99.90
27707;DHT22;36332;51.384;0.040;2023-04-24T23:06:28;7.30;99.90
27707;DHT22;36332;51.384;0.040;2023-04-24T23:08:56;7.20;99.90
27707;DHT22;36332;51.384;0.040;2023-04-24T23:11:23;7.30;99.90
27707;DHT22;36332;51.384;0.040;2023-04-24T23:13:51;7.20;99.90
27707;DHT22;36332;51.384;0.040;2023-04-24T23:16:18;7.20;99.90
27707;DHT22;36332;51.384;0.040;2023-04-24T23:18:47;7.20;99.90
27707;DHT22;36332;51.384;0.040;2023-04-24T23:21:14;7.20;99.90
27707;DHT22;36332;51.384;0.040;2023-04-24T23:23:42;7.10;99.90
27707;DHT22;36332;51.384;0.040;2023-04-24T23:26:10;7.10;99.90
27707;DHT22;36332;51.384;0.040;2023-04-24T23:28:37;7.10;99.90
27707;DHT22;36332;51.384;0.040;2023-04-24T23:31:06;7.10;99.90
27707;DHT22;36332;51.384;0.040;2023-04-24T23:33:34;7.10;99.90
27707;DHT22;36332;51.384;0.040;2023-04-24T23:36:02;7.10;99.90
27707;DHT22;36332;51.384;0.040;2023-04-24T23:38:29;7.10;99.90
27707;DHT22;36332;51.384;0.040;2023-04-24T23:41:15;7.10;99.90
27707;DHT22;36332;51.384;0.040;2023-04-24T23:43:43;7.10;99.90
27707;DHT22;36332;51.384;0.040;2023-04-24T23:46:10;7.00;99.90
27707;DHT22;36332;51.384;0.040;2023-04-24T23:48:39;7.00;99.90
27707;DHT22;36332;51.384;0.040;2023-04-24T23:53:34;7.00;99.90
27707;DHT22;36332;51.384;0.040;2023-04-24T23:56:02;7.00;99.90
27707;DHT22;36332;51.384;0.040;2023-04-24T23:58:30;6.90;99.90
